Terminal Aerodrome Forecast
Issued by NWS Billings, MT

Home | Current Version | Previous Version | Text Only | Print | Product List | Glossary Off
Versions: 1 2 3 4 5 6 7 8 9 10 11 12 13 14 15 16 17 18 19 20 21

000
FTUS45 KBYZ 181737
TAFMLS
TAF
KMLS 181737Z 1818/1918 02012KT 4SM RA OVC008
     FM182000 03014KT 2SM -RA OVC010
     FM190000 03012KT P6SM VCSH BKN020=

USA.gov is the U.S. government's official web portal to all federal, state and local government web resources and services.